sensor_id;sensor_type;location;lat;lon;timestamp;pressure;altitude;pressure_sealevel;temperature;humidity
72548;BME280;60570;50.848;6.776;2023-08-06T00:00:38;99379.34;;;18.23;74.44
72548;BME280;60570;50.848;6.776;2023-08-06T00:01:39;99381.34;;;18.23;74.39
72548;BME280;60570;50.848;6.776;2023-08-06T00:02:41;99389.78;;;18.23;74.38
72548;BME280;60570;50.848;6.776;2023-08-06T00:03:41;99391.00;;;18.22;74.15
72548;BME280;60570;50.848;6.776;2023-08-06T00:04:44;99379.75;;;18.22;74.43
72548;BME280;60570;50.848;6.776;2023-08-06T00:05:45;99393.41;;;18.23;74.33
72548;BME280;60570;50.848;6.776;2023-08-06T00:06:46;99385.38;;;18.22;74.18
72548;BME280;60570;50.848;6.776;2023-08-06T00:07:47;99382.56;;;18.22;74.30
72548;BME280;60570;50.848;6.776;2023-08-06T00:08:48;99392.22;;;18.21;74.39
72548;BME280;60570;50.848;6.776;2023-08-06T00:09:49;99382.19;;;18.20;74.48
72548;BME280;60570;50.848;6.776;2023-08-06T00:10:50;99381.38;;;18.19;74.09
72548;BME280;60570;50.848;6.776;2023-08-06T00:11:51;99390.63;;;18.20;74.38
72548;BME280;60570;50.848;6.776;2023-08-06T00:12:52;99386.19;;;18.19;74.48
72548;BME280;60570;50.848;6.776;2023-08-06T00:13:53;99383.38;;;18.19;74.63
72548;BME280;60570;50.848;6.776;2023-08-06T00:14:54;99382.59;;;18.18;74.20
72548;BME280;60570;50.848;6.776;2023-08-06T00:15:55;99386.63;;;18.17;74.70
72548;BME280;60570;50.848;6.776;2023-08-06T00:16:56;99387.44;;;18.18;74.60
72548;BME280;60570;50.848;6.776;2023-08-06T00:17:59;99381.81;;;18.18;74.37
72548;BME280;60570;50.848;6.776;2023-08-06T00:19:00;99385.03;;;18.16;74.29
72548;BME280;60570;50.848;6.776;2023-08-06T00:20:04;99383.84;;;18.14;74.85
72548;BME280;60570;50.848;6.776;2023-08-06T00:21:06;99381.03;;;18.14;74.70
72548;BME280;60570;50.848;6.776;2023-08-06T00:22:08;99383.84;;;18.14;74.58
72548;BME280;60570;50.848;6.776;2023-08-06T00:23:08;99382.25;;;18.13;74.54
72548;BME280;60570;50.848;6.776;2023-08-06T00:24:10;99378.63;;;18.12;74.69
72548;BME280;60570;50.848;6.776;2023-08-06T00:25:10;99378.63;;;18.12;74.60
72548;BME280;60570;50.848;6.776;2023-08-06T00:26:11;99382.25;;;18.13;74.71
72548;BME280;60570;50.848;6.776;2023-08-06T00:27:12;99373.03;;;18.12;74.63
72548;BME280;60570;50.848;6.776;2023-08-06T00:28:13;99386.25;;;18.12;74.93
72548;BME280;60570;50.848;6.776;2023-08-06T00:29:14;99377.03;;;18.11;74.89
72548;BME280;60570;50.848;6.776;2023-08-06T00:30:15;99374.63;;;18.10;74.93
72548;BME280;60570;50.848;6.776;2023-08-06T00:31:20;99380.25;;;18.10;74.90
72548;BME280;60570;50.848;6.776;2023-08-06T00:32:20;99373.81;;;18.09;74.64
72548;BME280;60570;50.848;6.776;2023-08-06T00:33:21;99377.44;;;18.10;74.78
72548;BME280;60570;50.848;6.776;2023-08-06T00:34:23;99379.84;;;18.11;74.75
72548;BME280;60570;50.848;6.776;2023-08-06T00:35:25;99385.06;;;18.09;75.14
72548;BME280;60570;50.848;6.776;2023-08-06T00:36:26;99383.06;;;18.10;74.68
72548;BME280;60570;50.848;6.776;2023-08-06T00:37:27;99383.06;;;18.10;74.40
72548;BME280;60570;50.848;6.776;2023-08-06T00:38:28;99381.47;;;18.09;74.97
72548;BME280;60570;50.848;6.776;2023-08-06T00:39:29;99385.50;;;18.08;74.74
72548;BME280;60570;50.848;6.776;2023-08-06T00:40:29;99378.69;;;18.09;74.96
72548;BME280;60570;50.848;6.776;2023-08-06T00:41:31;99383.91;;;18.07;74.87
72548;BME280;60570;50.848;6.776;2023-08-06T00:42:31;99388.31;;;18.08;74.98
72548;BME280;60570;50.848;6.776;2023-08-06T00:43:32;99379.88;;;18.08;74.79
72548;BME280;60570;50.848;6.776;2023-08-06T00:44:33;99384.28;;;18.09;74.82
72548;BME280;60570;50.848;6.776;2023-08-06T00:45:35;99385.50;;;18.08;74.85
72548;BME280;60570;50.848;6.776;2023-08-06T00:46:37;99385.50;;;18.08;75.00
72548;BME280;60570;50.848;6.776;2023-08-06T00:47:38;99384.28;;;18.09;74.71
72548;BME280;60570;50.848;6.776;2023-08-06T00:48:40;99387.50;;;18.07;75.03
72548;BME280;60570;50.848;6.776;2023-08-06T00:49:41;99381.09;;;18.07;74.73
72548;BME280;60570;50.848;6.776;2023-08-06T00:50:44;99388.31;;;18.08;74.83
72548;BME280;60570;50.848;6.776;2023-08-06T00:51:45;99384.69;;;18.07;74.93
72548;BME280;60570;50.848;6.776;2023-08-06T00:52:47;99375.47;;;18.07;74.86
72548;BME280;60570;50.848;6.776;2023-08-06T00:53:48;99382.28;;;18.06;75.01
72548;BME280;60570;50.848;6.776;2023-08-06T00:54:50;99388.72;;;18.06;74.74
72548;BME280;60570;50.848;6.776;2023-08-06T00:55:51;99379.47;;;18.06;74.87
72548;BME280;60570;50.848;6.776;2023-08-06T00:56:53;99382.28;;;18.06;75.07
72548;BME280;60570;50.848;6.776;2023-08-06T00:57:53;99374.28;;;18.04;74.76
72548;BME280;60570;50.848;6.776;2023-08-06T00:58:56;99374.28;;;18.04;74.75
72548;BME280;60570;50.848;6.776;2023-08-06T00:59:57;99375.09;;;18.05;74.85
72548;BME280;60570;50.848;6.776;2023-08-06T01:00:58;99375.09;;;18.05;74.90
72548;BME280;60570;50.848;6.776;2023-08-06T01:01:59;99373.06;;;18.05;75.15
72548;BME280;60570;50.848;6.776;2023-08-06T01:03:00;99383.91;;;18.03;74.89
72548;BME280;60570;50.848;6.776;2023-08-06T01:04:01;99379.91;;;18.04;74.91
72548;BME280;60570;50.848;6.776;2023-08-06T01:05:03;99377.50;;;18.03;74.88
72548;BME280;60570;50.848;6.776;2023-08-06T01:06:05;99374.69;;;18.03;74.77
72548;BME280;60570;50.848;6.776;2023-08-06T01:07:09;99375.47;;;18.03;74.91
72548;BME280;60570;50.848;6.776;2023-08-06T01:08:15;99372.66;;;18.03;75.11
72548;BME280;60570;50.848;6.776;2023-08-06T01:09:25;99368.28;;;18.02;74.97
72548;BME280;60570;50.848;6.776;2023-08-06T01:10:32;99375.47;;;18.03;75.00
72548;BME280;60570;50.848;6.776;2023-08-06T01:11:44;99363.47;;;18.03;74.90
72548;BME280;60570;50.848;6.776;2023-08-06T01:12:48;99367.03;;;18.03;74.76
72548;BME280;60570;50.848;6.776;2023-08-06T01:13:54;99369.09;;;18.03;75.00
72548;BME280;60570;50.848;6.776;2023-08-06T01:15:00;99361.84;;;18.02;74.98
72548;BME280;60570;50.848;6.776;2023-08-06T01:16:01;99371.50;;;18.01;74.95
72548;BME280;60570;50.848;6.776;2023-08-06T01:17:03;99367.88;;;18.00;75.10
72548;BME280;60570;50.848;6.776;2023-08-06T01:18:04;99360.69;;;17.99;75.13
72548;BME280;60570;50.848;6.776;2023-08-06T01:19:17;99363.50;;;17.99;75.05
72548;BME280;60570;50.848;6.776;2023-08-06T01:20:17;99360.69;;;17.99;75.05
72548;BME280;60570;50.848;6.776;2023-08-06T01:21:21;99362.25;;;18.00;74.96
72548;BME280;60570;50.848;6.776;2023-08-06T01:22:21;99360.69;;;17.99;74.95
72548;BME280;60570;50.848;6.776;2023-08-06T01:23:23;99360.69;;;17.99;74.87
72548;BME280;60570;50.848;6.776;2023-08-06T01:24:24;99354.25;;;17.99;74.89
72548;BME280;60570;50.848;6.776;2023-08-06T01:25:28;99365.50;;;17.99;74.83
72548;BME280;60570;50.848;6.776;2023-08-06T01:26:32;99371.94;;;17.99;75.11
72548;BME280;60570;50.848;6.776;2023-08-06T01:27:37;99364.28;;;18.00;75.05
72548;BME280;60570;50.848;6.776;2023-08-06T01:28:40;99370.31;;;17.98;74.85
72548;BME280;60570;50.848;6.776;2023-08-06T01:29:44;99365.50;;;17.99;75.12
72548;BME280;60570;50.848;6.776;2023-08-06T01:30:48;99358.25;;;17.98;74.86
72548;BME280;60570;50.848;6.776;2023-08-06T01:31:50;99358.25;;;17.98;75.22
72548;BME280;60570;50.848;6.776;2023-08-06T01:32:53;99363.88;;;17.98;75.05
72548;BME280;60570;50.848;6.776;2023-08-06T01:33:54;99363.88;;;17.98;74.84
72548;BME280;60570;50.848;6.776;2023-08-06T01:34:57;99358.25;;;17.98;74.98
72548;BME280;60570;50.848;6.776;2023-08-06T01:35:59;99356.25;;;17.98;75.09
72548;BME280;60570;50.848;6.776;2023-08-06T01:37:03;99361.06;;;17.98;75.06
72548;BME280;60570;50.848;6.776;2023-08-06T01:38:04;99358.25;;;17.98;75.09
72548;BME280;60570;50.848;6.776;2023-08-06T01:39:05;99357.06;;;17.99;75.12
72548;BME280;60570;50.848;6.776;2023-08-06T01:40:07;99350.63;;;17.98;75.18
72548;BME280;60570;50.848;6.776;2023-08-06T01:41:08;99353.88;;;17.97;75.18
72548;BME280;60570;50.848;6.776;2023-08-06T01:42:09;99354.25;;;17.99;75.08
72548;BME280;60570;50.848;6.776;2023-08-06T01:43:10;99346.25;;;17.97;75.21
72548;BME280;60570;50.848;6.776;2023-08-06T01:44:11;99351.88;;;17.97;74.93
72548;BME280;60570;50.848;6.776;2023-08-06T01:45:11;99344.63;;;17.96;75.19
72548;BME280;60570;50.848;6.776;2023-08-06T01:46:13;99349.44;;;17.96;75.04
72548;BME280;60570;50.848;6.776;2023-08-06T01:47:13;99344.63;;;17.96;75.05
72548;BME280;60570;50.848;6.776;2023-08-06T01:48:15;99343.81;;;17.96;75.19
72548;BME280;60570;50.848;6.776;2023-08-06T01:49:15;99340.25;;;17.95;74.91
72548;BME280;60570;50.848;6.776;2023-08-06T01:50:17;99341.00;;;17.96;75.06
72548;BME280;60570;50.848;6.776;2023-08-06T01:51:17;99341.00;;;17.96;74.94
72548;BME280;60570;50.848;6.776;2023-08-06T01:52:21;99342.25;;;17.95;74.94
72548;BME280;60570;50.848;6.776;2023-08-06T01:53:21;99336.63;;;17.95;74.97
72548;BME280;60570;50.848;6.776;2023-08-06T01:54:22;99335.00;;;17.93;75.06
72548;BME280;60570;50.848;6.776;2023-08-06T01:55:24;99334.22;;;17.93;75.05
72548;BME280;60570;50.848;6.776;2023-08-06T01:56:24;99332.19;;;17.93;75.09
72548;BME280;60570;50.848;6.776;2023-08-06T01:57:26;99334.22;;;17.93;75.11
72548;BME280;60570;50.848;6.776;2023-08-06T01:58:26;99337.03;;;17.93;75.10
72548;BME280;60570;50.848;6.776;2023-08-06T01:59:28;99328.59;;;17.93;74.95
72548;BME280;60570;50.848;6.776;2023-08-06T02:00:30;99330.63;;;17.92;75.18
72548;BME280;60570;50.848;6.776;2023-08-06T02:01:32;99329.81;;;17.92;75.18
72548;BME280;60570;50.848;6.776;2023-08-06T02:02:32;99329.00;;;17.91;75.15
72548;BME280;60570;50.848;6.776;2023-08-06T02:03:34;99327.00;;;17.92;74.88
72548;BME280;60570;50.848;6.776;2023-08-06T02:04:34;99324.19;;;17.92;75.05
72548;BME280;60570;50.848;6.776;2023-08-06T02:05:36;99329.81;;;17.92;74.86
72548;BME280;60570;50.848;6.776;2023-08-06T02:06:37;99331.03;;;17.91;75.07
72548;BME280;60570;50.848;6.776;2023-08-06T02:07:40;99327.00;;;17.92;75.06
72548;BME280;60570;50.848;6.776;2023-08-06T02:08:40;99324.19;;;17.92;74.83
72548;BME280;60570;50.848;6.776;2023-08-06T02:09:42;99329.81;;;17.92;75.29
72548;BME280;60570;50.848;6.776;2023-08-06T02:10:42;99324.59;;;17.90;75.20
72548;BME280;60570;50.848;6.776;2023-08-06T02:11:44;99319.78;;;17.91;75.07
72548;BME280;60570;50.848;6.776;2023-08-06T02:12:44;99319.78;;;17.91;75.16
72548;BME280;60570;50.848;6.776;2023-08-06T02:13:46;99319.41;;;17.89;75.03
72548;BME280;60570;50.848;6.776;2023-08-06T02:14:46;99317.38;;;17.89;74.83
72548;BME280;60570;50.848;6.776;2023-08-06T02:15:52;99319.41;;;17.89;75.08
72548;BME280;60570;50.848;6.776;2023-08-06T02:16:52;99318.59;;;17.88;74.95
72548;BME280;60570;50.848;6.776;2023-08-06T02:17:54;99313.78;;;17.89;75.03
72548;BME280;60570;50.848;6.776;2023-08-06T02:18:54;99314.56;;;17.89;74.99
72548;BME280;60570;50.848;6.776;2023-08-06T02:19:56;99315.38;;;17.90;75.03
72548;BME280;60570;50.848;6.776;2023-08-06T02:20:56;99314.56;;;17.89;75.02
72548;BME280;60570;50.848;6.776;2023-08-06T02:21:58;99312.19;;;17.88;74.89
72548;BME280;60570;50.848;6.776;2023-08-06T02:23:00;99318.19;;;17.90;74.99
72548;BME280;60570;50.848;6.776;2023-08-06T02:24:02;99314.97;;;17.88;75.01
72548;BME280;60570;50.848;6.776;2023-08-06T02:25:02;99314.97;;;17.88;75.10
72548;BME280;60570;50.848;6.776;2023-08-06T02:26:03;99308.59;;;17.87;74.96
72548;BME280;60570;50.848;6.776;2023-08-06T02:27:05;99314.22;;;17.87;74.93
72548;BME280;60570;50.848;6.776;2023-08-06T02:28:06;99319.03;;;17.87;75.03
72548;BME280;60570;50.848;6.776;2023-08-06T02:29:08;99321.41;;;17.88;74.88
72548;BME280;60570;50.848;6.776;2023-08-06T02:30:08;99314.97;;;17.88;74.72
72548;BME280;60570;50.848;6.776;2023-08-06T02:31:10;99312.59;;;17.86;75.24
72548;BME280;60570;50.848;6.776;2023-08-06T02:32:10;99313.81;;;17.85;75.14
72548;BME280;60570;50.848;6.776;2023-08-06T02:33:12;99312.59;;;17.86;74.91
72548;BME280;60570;50.848;6.776;2023-08-06T02:34:12;99315.41;;;17.86;74.98
72548;BME280;60570;50.848;6.776;2023-08-06T02:35:14;99312.59;;;17.86;75.27
72548;BME280;60570;50.848;6.776;2023-08-06T02:36:15;99311.00;;;17.85;74.92
72548;BME280;60570;50.848;6.776;2023-08-06T02:37:16;99312.59;;;17.86;75.08
72548;BME280;60570;50.848;6.776;2023-08-06T02:38:19;99311.00;;;17.85;74.84
72548;BME280;60570;50.848;6.776;2023-08-06T02:39:21;99301.78;;;17.85;74.84
72548;BME280;60570;50.848;6.776;2023-08-06T02:40:21;99304.16;;;17.86;74.87
72548;BME280;60570;50.848;6.776;2023-08-06T02:41:23;99306.97;;;17.86;74.86
72548;BME280;60570;50.848;6.776;2023-08-06T02:42:23;99301.34;;;17.86;74.88
72548;BME280;60570;50.848;6.776;2023-08-06T02:43:25;99303.34;;;17.86;74.55
72548;BME280;60570;50.848;6.776;2023-08-06T02:44:27;99304.59;;;17.85;75.04
72548;BME280;60570;50.848;6.776;2023-08-06T02:45:28;99308.19;;;17.85;74.97
72548;BME280;60570;50.848;6.776;2023-08-06T02:46:30;99298.97;;;17.85;75.16
72548;BME280;60570;50.848;6.776;2023-08-06T02:47:30;99304.59;;;17.85;75.00
72548;BME280;60570;50.848;6.776;2023-08-06T02:48:32;99309.41;;;17.84;75.05
72548;BME280;60570;50.848;6.776;2023-08-06T02:49:32;99303.78;;;17.84;74.94
72548;BME280;60570;50.848;6.776;2023-08-06T02:50:37;99301.78;;;17.85;74.90
72548;BME280;60570;50.848;6.776;2023-08-06T02:51:38;99307.41;;;17.85;74.96
72548;BME280;60570;50.848;6.776;2023-08-06T02:52:39;99302.59;;;17.85;75.06
72548;BME280;60570;50.848;6.776;2023-08-06T02:53:41;99298.16;;;17.84;75.22
72548;BME280;60570;50.848;6.776;2023-08-06T02:54:43;99302.19;;;17.83;75.19
72548;BME280;60570;50.848;6.776;2023-08-06T02:55:45;99296.56;;;17.83;75.02
72548;BME280;60570;50.848;6.776;2023-08-06T02:56:47;99290.97;;;17.83;75.05
72548;BME280;60570;50.848;6.776;2023-08-06T02:57:48;99284.53;;;17.83;75.50
72548;BME280;60570;50.848;6.776;2023-08-06T02:58:49;99293.75;;;17.83;75.05
72548;BME280;60570;50.848;6.776;2023-08-06T02:59:50;99285.34;;;17.83;75.33
72548;BME280;60570;50.848;6.776;2023-08-06T03:00:58;99288.16;;;17.83;74.97
72548;BME280;60570;50.848;6.776;2023-08-06T03:01:59;99285.34;;;17.83;75.06
72548;BME280;60570;50.848;6.776;2023-08-06T03:03:01;99276.09;;;17.83;74.86
72548;BME280;60570;50.848;6.776;2023-08-06T03:04:01;99282.16;;;17.81;75.18
72548;BME280;60570;50.848;6.776;2023-08-06T03:05:03;99281.34;;;17.81;75.10
72548;BME280;60570;50.848;6.776;2023-08-06T03:06:07;99277.28;;;17.82;74.98
72548;BME280;60570;50.848;6.776;2023-08-06T03:07:09;99282.16;;;17.81;75.22
72548;BME280;60570;50.848;6.776;2023-08-06T03:08:09;99275.72;;;17.81;75.35
72548;BME280;60570;50.848;6.776;2023-08-06T03:09:12;99281.75;;;17.79;75.31
72548;BME280;60570;50.848;6.776;2023-08-06T03:10:13;99279.72;;;17.80;75.24
72548;BME280;60570;50.848;6.776;2023-08-06T03:11:14;99274.91;;;17.80;75.11
72548;BME280;60570;50.848;6.776;2023-08-06T03:12:15;99280.16;;;17.78;75.09
72548;BME280;60570;50.848;6.776;2023-08-06T03:13:16;99282.16;;;17.78;75.04
72548;BME280;60570;50.848;6.776;2023-08-06T03:14:17;99270.91;;;17.78;75.27
72548;BME280;60570;50.848;6.776;2023-08-06T03:15:20;99279.34;;;17.78;75.20
72548;BME280;60570;50.848;6.776;2023-08-06T03:16:21;99270.91;;;17.78;75.38
72548;BME280;60570;50.848;6.776;2023-08-06T03:17:22;99270.13;;;17.77;74.95
72548;BME280;60570;50.848;6.776;2023-08-06T03:18:23;99277.34;;;17.78;75.33
72548;BME280;60570;50.848;6.776;2023-08-06T03:19:23;99280.94;;;17.79;75.20
72548;BME280;60570;50.848;6.776;2023-08-06T03:20:25;99273.72;;;17.78;75.23
72548;BME280;60570;50.848;6.776;2023-08-06T03:21:25;99279.34;;;17.78;75.33
72548;BME280;60570;50.848;6.776;2023-08-06T03:22:27;99270.13;;;17.77;75.21
72548;BME280;60570;50.848;6.776;2023-08-06T03:23:28;99269.31;;;17.77;75.33
72548;BME280;60570;50.848;6.776;2023-08-06T03:24:30;99266.09;;;17.78;75.21
72548;BME280;60570;50.848;6.776;2023-08-06T03:25:34;99271.72;;;17.78;75.45
72548;BME280;60570;50.848;6.776;2023-08-06T03:26:36;99265.28;;;17.78;75.05
72548;BME280;60570;50.848;6.776;2023-08-06T03:27:37;99263.72;;;17.77;75.17
72548;BME280;60570;50.848;6.776;2023-08-06T03:28:38;99272.13;;;17.77;75.15
72548;BME280;60570;50.848;6.776;2023-08-06T03:29:39;99274.13;;;17.76;75.34
72548;BME280;60570;50.848;6.776;2023-08-06T03:30:40;99266.50;;;17.77;75.21
72548;BME280;60570;50.848;6.776;2023-08-06T03:31:42;99264.13;;;17.75;75.29
72548;BME280;60570;50.848;6.776;2023-08-06T03:32:44;99268.53;;;17.76;75.13
72548;BME280;60570;50.848;6.776;2023-08-06T03:33:44;99260.91;;;17.77;75.20
72548;BME280;60570;50.848;6.776;2023-08-06T03:34:46;99262.09;;;17.76;75.22
72548;BME280;60570;50.848;6.776;2023-08-06T03:35:46;99266.13;;;17.75;75.43
72548;BME280;60570;50.848;6.776;2023-08-06T03:36:48;99260.50;;;17.75;75.33
72548;BME280;60570;50.848;6.776;2023-08-06T03:37:49;99261.31;;;17.75;75.31
72548;BME280;60570;50.848;6.776;2023-08-06T03:38:50;99261.72;;;17.74;75.62
72548;BME280;60570;50.848;6.776;2023-08-06T03:39:53;99260.50;;;17.75;75.30
72548;BME280;60570;50.848;6.776;2023-08-06T03:40:53;99262.50;;;17.74;75.32
72548;BME280;60570;50.848;6.776;2023-08-06T03:41:55;99261.31;;;17.75;75.33
72548;BME280;60570;50.848;6.776;2023-08-06T03:42:55;99272.94;;;17.74;75.21
72548;BME280;60570;50.848;6.776;2023-08-06T03:43:57;99264.94;;;17.72;75.36
72548;BME280;60570;50.848;6.776;2023-08-06T03:45:01;99269.78;;;17.72;75.50
72548;BME280;60570;50.848;6.776;2023-08-06T03:46:06;99270.13;;;17.74;75.32
72548;BME280;60570;50.848;6.776;2023-08-06T03:47:06;99262.94;;;17.73;75.43
72548;BME280;60570;50.848;6.776;2023-08-06T03:48:11;99260.94;;;17.73;75.70
72548;BME280;60570;50.848;6.776;2023-08-06T03:49:11;99253.69;;;17.72;75.57
72548;BME280;60570;50.848;6.776;2023-08-06T03:50:13;99258.53;;;17.72;75.32
72548;BME280;60570;50.848;6.776;2023-08-06T03:51:13;99260.94;;;17.73;75.32
72548;BME280;60570;50.848;6.776;2023-08-06T03:52:15;99253.69;;;17.72;75.36
72548;BME280;60570;50.848;6.776;2023-08-06T03:53:15;99252.50;;;17.73;75.45
72548;BME280;60570;50.848;6.776;2023-08-06T03:54:17;99259.31;;;17.72;75.46
72548;BME280;60570;50.848;6.776;2023-08-06T03:55:19;99257.31;;;17.73;75.49
72548;BME280;60570;50.848;6.776;2023-08-06T03:56:20;99259.31;;;17.72;75.70
72548;BME280;60570;50.848;6.776;2023-08-06T03:57:21;99260.53;;;17.71;75.35
72548;BME280;60570;50.848;6.776;2023-08-06T03:58:22;99252.50;;;17.73;75.30
72548;BME280;60570;50.848;6.776;2023-08-06T03:59:23;99264.16;;;17.72;75.37
72548;BME280;60570;50.848;6.776;2023-08-06T04:00:25;99246.91;;;17.70;75.55
72548;BME280;60570;50.848;6.776;2023-08-06T04:01:25;99256.13;;;17.70;75.51
72548;BME280;60570;50.848;6.776;2023-08-06T04:02:27;99253.75;;;17.69;75.39
72548;BME280;60570;50.848;6.776;2023-08-06T04:03:28;99255.34;;;17.70;75.37
72548;BME280;60570;50.848;6.776;2023-08-06T04:04:29;99256.13;;;17.70;75.39
72548;BME280;60570;50.848;6.776;2023-08-06T04:05:30;99254.53;;;17.69;75.35
72548;BME280;60570;50.848;6.776;2023-08-06T04:06:32;99257.34;;;17.69;75.53
72548;BME280;60570;50.848;6.776;2023-08-06T04:07:32;99258.56;;;17.68;75.54
72548;BME280;60570;50.848;6.776;2023-08-06T04:08:36;99264.97;;;17.69;75.52
72548;BME280;60570;50.848;6.776;2023-08-06T04:09:50;99254.97;;;17.68;75.61
72548;BME280;60570;50.848;6.776;2023-08-06T04:10:53;99259.34;;;17.69;75.32
72548;BME280;60570;50.848;6.776;2023-08-06T04:11:54;99261.34;;;17.68;75.42
72548;BME280;60570;50.848;6.776;2023-08-06T04:12:55;99254.97;;;17.68;75.49
72548;BME280;60570;50.848;6.776;2023-08-06T04:13:56;99260.59;;;17.68;75.59
72548;BME280;60570;50.848;6.776;2023-08-06T04:15:00;99247.72;;;17.67;75.60
72548;BME280;60570;50.848;6.776;2023-08-06T04:16:01;99261.78;;;17.67;75.42
72548;BME280;60570;50.848;6.776;2023-08-06T04:17:03;99258.16;;;17.66;75.24
72548;BME280;60570;50.848;6.776;2023-08-06T04:18:07;99260.97;;;17.66;75.58
72548;BME280;60570;50.848;6.776;2023-08-06T04:19:08;99264.59;;;17.67;75.71
72548;BME280;60570;50.848;6.776;2023-08-06T04:20:09;99253.34;;;17.67;75.40
72548;BME280;60570;50.848;6.776;2023-08-06T04:21:11;99260.19;;;17.66;75.65
72548;BME280;60570;50.848;6.776;2023-08-06T04:22:11;99263.00;;;17.66;75.46
72548;BME280;60570;50.848;6.776;2023-08-06T04:23:13;99263.38;;;17.68;75.28
72548;BME280;60570;50.848;6.776;2023-08-06T04:24:13;99254.56;;;17.66;75.62
72548;BME280;60570;50.848;6.776;2023-08-06T04:25:15;99256.59;;;17.65;75.52
72548;BME280;60570;50.848;6.776;2023-08-06T04:26:22;99255.78;;;17.65;75.53
72548;BME280;60570;50.848;6.776;2023-08-06T04:27:23;99254.97;;;17.64;75.65
72548;BME280;60570;50.848;6.776;2023-08-06T04:28:24;99256.19;;;17.63;75.70
72548;BME280;60570;50.848;6.776;2023-08-06T04:29:26;99247.78;;;17.63;75.76
72548;BME280;60570;50.848;6.776;2023-08-06T04:30:29;99248.97;;;17.66;75.53
72548;BME280;60570;50.848;6.776;2023-08-06T04:31:31;99243.72;;;17.64;75.40
72548;BME280;60570;50.848;6.776;2023-08-06T04:32:32;99252.56;;;17.63;75.45
72548;BME280;60570;50.848;6.776;2023-08-06T04:33:33;99252.56;;;17.63;75.50
72548;BME280;60570;50.848;6.776;2023-08-06T04:34:34;99251.38;;;17.64;75.55
72548;BME280;60570;50.848;6.776;2023-08-06T04:35:36;99254.19;;;17.64;75.58
72548;BME280;60570;50.848;6.776;2023-08-06T04:36:37;99255.38;;;17.63;75.60
72548;BME280;60570;50.848;6.776;2023-08-06T04:37:39;99257.00;;;17.64;75.35
72548;BME280;60570;50.848;6.776;2023-08-06T04:38:39;99253.38;;;17.63;75.56
72548;BME280;60570;50.848;6.776;2023-08-06T04:39:45;99254.19;;;17.64;75.57
72548;BME280;60570;50.848;6.776;2023-08-06T04:40:45;99256.19;;;17.63;75.58
72548;BME280;60570;50.848;6.776;2023-08-06T04:41:48;99248.19;;;17.62;75.83
72548;BME280;60570;50.848;6.776;2023-08-06T04:42:49;99261.00;;;17.63;75.74
72548;BME280;60570;50.848;6.776;2023-08-06T04:43:49;99261.00;;;17.63;75.50
72548;BME280;60570;50.848;6.776;2023-08-06T04:44:51;99253.81;;;17.62;75.86
72548;BME280;60570;50.848;6.776;2023-08-06T04:45:53;99255.00;;;17.61;75.69
72548;BME280;60570;50.848;6.776;2023-08-06T04:46:54;99260.63;;;17.61;75.84
72548;BME280;60570;50.848;6.776;2023-08-06T04:47:55;99252.19;;;17.61;75.80
72548;BME280;60570;50.848;6.776;2023-08-06T04:48:56;99258.63;;;17.61;75.71
72548;BME280;60570;50.848;6.776;2023-08-06T04:49:57;99258.19;;;17.63;75.80
72548;BME280;60570;50.848;6.776;2023-08-06T04:51:01;99255.38;;;17.63;75.60
72548;BME280;60570;50.848;6.776;2023-08-06T04:52:02;99254.59;;;17.62;75.84
72548;BME280;60570;50.848;6.776;2023-08-06T04:53:04;99257.38;;;17.62;75.86
72548;BME280;60570;50.848;6.776;2023-08-06T04:54:04;99257.81;;;17.61;75.77
72548;BME280;60570;50.848;6.776;2023-08-06T04:55:08;99255.81;;;17.61;75.91
72548;BME280;60570;50.848;6.776;2023-08-06T04:56:09;99255.78;;;17.65;75.97
72548;BME280;60570;50.848;6.776;2023-08-06T04:57:14;99257.78;;;17.64;75.82
72548;BME280;60570;50.848;6.776;2023-08-06T04:58:15;99259.81;;;17.64;75.87
72548;BME280;60570;50.848;6.776;2023-08-06T04:59:16;99255.38;;;17.63;75.60
72548;BME280;60570;50.848;6.776;2023-08-06T05:00:17;99261.81;;;17.63;75.67
72548;BME280;60570;50.848;6.776;2023-08-06T05:01:19;99256.19;;;17.63;75.70
72548;BME280;60570;50.848;6.776;2023-08-06T05:02:19;99260.59;;;17.64;75.78
72548;BME280;60570;50.848;6.776;2023-08-06T05:03:22;99258.59;;;17.65;75.77
72548;BME280;60570;50.848;6.776;2023-08-06T05:04:23;99264.63;;;17.63;75.70
72548;BME280;60570;50.848;6.776;2023-08-06T05:05:24;99259.78;;;17.67;75.68
72548;BME280;60570;50.848;6.776;2023-08-06T05:06:25;99256.53;;;17.69;75.90
72548;BME280;60570;50.848;6.776;2023-08-06T05:07:26;99256.94;;;17.71;75.50
72548;BME280;60570;50.848;6.776;2023-08-06T05:08:27;99256.50;;;17.72;75.37
72548;BME280;60570;50.848;6.776;2023-08-06T05:09:29;99257.75;;;17.71;75.34
72548;BME280;60570;50.848;6.776;2023-08-06T05:10:30;99257.31;;;17.73;75.25
72548;BME280;60570;50.848;6.776;2023-08-06T05:11:31;99260.97;;;17.70;75.49
72548;BME280;60570;50.848;6.776;2023-08-06T05:12:36;99255.34;;;17.70;75.59
72548;BME280;60570;50.848;6.776;2023-08-06T05:13:37;99262.97;;;17.69;75.45
72548;BME280;60570;50.848;6.776;2023-08-06T05:14:38;99262.56;;;17.71;75.71
72548;BME280;60570;50.848;6.776;2023-08-06T05:15:40;99263.38;;;17.68;75.44
72548;BME280;60570;50.848;6.776;2023-08-06T05:16:42;99267.00;;;17.65;75.57
72548;BME280;60570;50.848;6.776;2023-08-06T05:17:44;99267.81;;;17.65;75.60
72548;BME280;60570;50.848;6.776;2023-08-06T05:18:44;99266.19;;;17.64;75.71
72548;BME280;60570;50.848;6.776;2023-08-06T05:19:46;99276.25;;;17.65;75.63
72548;BME280;60570;50.848;6.776;2023-08-06T05:20:46;99263.00;;;17.62;75.96
72548;BME280;60570;50.848;6.776;2023-08-06T05:21:48;99278.28;;;17.61;75.78
72548;BME280;60570;50.848;6.776;2023-08-06T05:22:49;99271.81;;;17.64;75.84
72548;BME280;60570;50.848;6.776;2023-08-06T05:23:51;99275.84;;;17.63;75.79
72548;BME280;60570;50.848;6.776;2023-08-06T05:24:52;99275.47;;;17.61;76.01
72548;BME280;60570;50.848;6.776;2023-08-06T05:25:52;99272.66;;;17.61;75.93
72548;BME280;60570;50.848;6.776;2023-08-06T05:26:54;99274.25;;;17.62;75.78